createdAt,value
2018-08-11T00:00:02.200Z,2.48
2018-08-11T00:00:14.727Z,2.48
2018-08-11T00:00:27.353Z,2.48
2018-08-11T00:00:39.891Z,2.48
2018-08-11T00:00:52.424Z,2.48
2018-08-11T00:01:04.966Z,2.48
2018-08-11T00:01:17.482Z,2.48
2018-08-11T00:01:30.004Z,2.48
2018-08-11T00:01:42.527Z,2.48
2018-08-11T00:01:55.034Z,2.48
2018-08-11T00:02:07.569Z,2.48
2018-08-11T00:02:20.127Z,2.48
2018-08-11T00:02:32.793Z,2.48
2018-08-11T00:02:45.321Z,2.48
2018-08-11T00:02:57.855Z,2.48
2018-08-11T00:03:10.420Z,2.48
2018-08-11T00:03:22.935Z,2.48
2018-08-11T00:03:35.446Z,2.48
2018-08-11T00:03:47.962Z,2.48
2018-08-11T00:04:00.475Z,2.48
2018-08-11T00:04:13.085Z,2.48
2018-08-11T00:04:25.598Z,2.48
2018-08-11T00:04:38.099Z,2.48
2018-08-11T00:04:50.618Z,2.48
2018-08-11T00:05:03.166Z,2.48
2018-08-11T00:05:15.691Z,2.48
2018-08-11T00:05:28.214Z,2.48
2018-08-11T00:05:40.747Z,2.48
2018-08-11T00:05:53.267Z,2.48
2018-08-11T00:06:05.863Z,2.48
2018-08-11T00:06:18.373Z,2.48
2018-08-11T00:06:30.944Z,2.48
2018-08-11T00:06:43.452Z,2.48
2018-08-11T00:06:55.985Z,2.48
2018-08-11T00:07:08.503Z,2.48
2018-08-11T00:07:21.022Z,2.48
2018-08-11T00:07:33.539Z,2.48
2018-08-11T00:07:46.048Z,2.48
2018-08-11T00:07:58.636Z,2.48
2018-08-11T00:08:11.176Z,2.63
2018-08-11T00:08:23.696Z,2.63
2018-08-11T00:08:36.212Z,2.63
2018-08-11T00:08:48.883Z,2.63
2018-08-11T00:09:01.561Z,2.63
2018-08-11T00:09:14.091Z,2.63
2018-08-11T00:09:26.635Z,2.63
2018-08-11T00:09:39.158Z,2.63
2018-08-11T00:09:51.666Z,2.63
2018-08-11T00:10:04.203Z,2.63
2018-08-11T00:10:16.737Z,2.63
2018-08-11T00:10:29.269Z,2.63
2018-08-11T00:10:41.776Z,2.63
2018-08-11T00:10:54.296Z,2.63
2018-08-11T00:11:06.813Z,2.63
2018-08-11T00:11:19.315Z,2.63
2018-08-11T00:11:31.835Z,2.63
2018-08-11T00:11:44.360Z,2.63
2018-08-11T00:11:56.906Z,2.63
2018-08-11T00:12:09.462Z,2.63
2018-08-11T00:12:21.990Z,2.63
2018-08-11T00:12:34.550Z,2.63
2018-08-11T00:12:47.077Z,2.63
2018-08-11T00:12:59.609Z,2.63
2018-08-11T00:13:12.120Z,2.63
2018-08-11T00:13:24.655Z,2.63
2018-08-11T00:13:37.197Z,2.63
2018-08-11T00:13:49.700Z,2.63
2018-08-11T00:14:02.264Z,2.63
2018-08-11T00:14:14.781Z,2.63
2018-08-11T00:14:27.317Z,2.63
2018-08-11T00:14:39.820Z,2.63
2018-08-11T00:14:52.339Z,2.63
2018-08-11T00:15:04.848Z,2.63
2018-08-11T00:15:17.398Z,2.63
2018-08-11T00:15:29.974Z,2.63
2018-08-11T00:15:42.509Z,2.63
2018-08-11T00:15:55.033Z,2.63
2018-08-11T00:16:07.550Z,2.63
2018-08-11T00:16:20.070Z,2.63
2018-08-11T00:16:32.579Z,2.63
2018-08-11T00:16:45.086Z,2.63
2018-08-11T00:16:57.601Z,2.63
2018-08-11T00:17:10.094Z,2.63
2018-08-11T00:17:22.593Z,2.63
2018-08-11T00:17:35.092Z,2.63
2018-08-11T00:17:47.617Z,2.63
2018-08-11T00:18:00.126Z,2.63
2018-08-11T00:18:12.626Z,4.25
2018-08-11T00:18:25.178Z,4.25
2018-08-11T00:18:37.694Z,4.25
2018-08-11T00:18:50.210Z,4.25
2018-08-11T00:19:02.736Z,4.25
2018-08-11T00:19:15.264Z,4.25
2018-08-11T00:19:27.767Z,4.25
2018-08-11T00:19:40.265Z,4.25
2018-08-11T00:19:52.764Z,4.25
2018-08-11T00:20:05.296Z,4.25
2018-08-11T00:20:17.797Z,4.25
2018-08-11T00:20:30.313Z,4.25
2018-08-11T00:20:42.924Z,4.25
2018-08-11T00:20:55.462Z,4.25
2018-08-11T00:21:08.019Z,4.25
2018-08-11T00:21:20.534Z,4.25
2018-08-11T00:21:33.050Z,4.25
2018-08-11T00:21:45.568Z,4.25
2018-08-11T00:21:58.073Z,4.25
2018-08-11T00:22:10.744Z,4.25
2018-08-11T00:22:23.257Z,4.25
2018-08-11T00:22:35.756Z,4.25
2018-08-11T00:22:48.277Z,4.25
2018-08-11T00:23:00.791Z,4.25
2018-08-11T00:23:13.513Z,4.25
2018-08-11T00:23:26.045Z,4.25
2018-08-11T00:23:38.553Z,4.25
2018-08-11T00:23:51.084Z,4.25
2018-08-11T00:24:03.597Z,4.25
2018-08-11T00:24:16.114Z,4.25
2018-08-11T00:24:28.633Z,4.25
2018-08-11T00:24:41.151Z,4.25
2018-08-11T00:24:53.664Z,4.25
2018-08-11T00:25:06.182Z,4.25
2018-08-11T00:25:18.699Z,4.25
2018-08-11T00:25:31.234Z,4.25
2018-08-11T00:25:43.754Z,4.25
2018-08-11T00:25:56.391Z,4.25
2018-08-11T00:26:08.921Z,4.25
2018-08-11T00:26:21.426Z,4.25
2018-08-11T00:26:33.936Z,4.25
2018-08-11T00:26:46.453Z,4.25
2018-08-11T00:26:58.954Z,4.25
2018-08-11T00:27:11.757Z,4.25
2018-08-11T00:27:24.286Z,4.25
2018-08-11T00:27:36.797Z,4.25
2018-08-11T00:27:49.329Z,4.25
2018-08-11T00:28:01.891Z,4.25
2018-08-11T00:28:14.408Z,2.32
2018-08-11T00:28:26.931Z,2.32
2018-08-11T00:28:39.445Z,2.32
2018-08-11T00:28:52.127Z,2.32
2018-08-11T00:29:04.645Z,2.32
2018-08-11T00:29:17.175Z,2.32
2018-08-11T00:29:29.976Z,2.32
2018-08-11T00:29:42.534Z,2.32
2018-08-11T00:29:55.050Z,2.32
2018-08-11T00:30:07.562Z,2.32
2018-08-11T00:30:20.074Z,2.32
2018-08-11T00:30:32.602Z,2.32
2018-08-11T00:30:45.189Z,2.32
2018-08-11T00:30:57.714Z,2.32
2018-08-11T00:31:10.222Z,2.32
2018-08-11T00:31:22.734Z,2.32
2018-08-11T00:31:35.249Z,2.32
2018-08-11T00:31:47.754Z,2.32
2018-08-11T00:32:00.274Z,2.32
2018-08-11T00:32:12.795Z,2.32
2018-08-11T00:32:25.312Z,2.32
2018-08-11T00:32:38.002Z,2.32
2018-08-11T00:32:50.508Z,2.32
2018-08-11T00:33:03.000Z,2.32
2018-08-11T00:33:15.499Z,2.32
2018-08-11T00:33:28.009Z,2.32
2018-08-11T00:33:40.513Z,2.32
2018-08-11T00:33:53.036Z,2.32
2018-08-11T00:34:05.556Z,2.32
2018-08-11T00:34:18.066Z,2.32
2018-08-11T00:34:30.601Z,2.32
2018-08-11T00:34:43.123Z,2.32
2018-08-11T00:34:55.628Z,2.32
2018-08-11T00:35:08.126Z,2.32
2018-08-11T00:35:20.654Z,2.32
2018-08-11T00:35:33.227Z,2.32
2018-08-11T00:35:45.719Z,2.32
2018-08-11T00:35:58.234Z,2.32
2018-08-11T00:36:10.742Z,2.32
2018-08-11T00:36:23.465Z,2.32
2018-08-11T00:36:37.192Z,2.32
2018-08-11T00:36:49.719Z,2.32
2018-08-11T00:37:02.245Z,2.32
2018-08-11T00:37:14.759Z,2.32
2018-08-11T00:37:27.427Z,2.32
2018-08-11T00:37:39.984Z,2.32
2018-08-11T00:37:52.502Z,2.32
2018-08-11T00:38:05.024Z,2.32
2018-08-11T00:38:17.554Z,2.62
2018-08-11T00:38:30.088Z,2.62
2018-08-11T00:38:42.626Z,2.62
2018-08-11T00:38:55.133Z,2.62
2018-08-11T00:39:07.683Z,2.62
2018-08-11T00:39:20.415Z,2.62
2018-08-11T00:39:32.927Z,2.62
2018-08-11T00:39:45.457Z,2.62
2018-08-11T00:39:57.959Z,2.62
2018-08-11T00:40:10.499Z,2.62
2018-08-11T00:40:23.067Z,2.62
2018-08-11T00:40:35.566Z,2.62
2018-08-11T00:40:48.079Z,2.62
2018-08-11T00:41:00.591Z,2.62
2018-08-11T00:41:13.100Z,2.62
2018-08-11T00:41:25.609Z,2.62
2018-08-11T00:41:38.128Z,2.62
2018-08-11T00:41:50.613Z,2.62
2018-08-11T00:42:03.143Z,2.62
2018-08-11T00:42:15.727Z,2.62
2018-08-11T00:42:28.243Z,2.62
2018-08-11T00:42:40.808Z,2.62
2018-08-11T00:42:53.386Z,2.62
2018-08-11T00:43:05.933Z,2.62
2018-08-11T00:43:18.446Z,2.62
2018-08-11T00:43:30.968Z,2.62
2018-08-11T00:43:43.482Z,2.62
2018-08-11T00:43:56.004Z,2.62
2018-08-11T00:44:08.519Z,2.62
2018-08-11T00:44:21.051Z,2.62
2018-08-11T00:44:33.795Z,2.62
2018-08-11T00:44:46.315Z,2.62
2018-08-11T00:44:58.817Z,2.62
2018-08-11T00:45:11.350Z,2.62
2018-08-11T00:45:23.872Z,2.62
2018-08-11T00:45:36.401Z,2.62
2018-08-11T00:45:48.933Z,2.62
2018-08-11T00:46:01.447Z,2.62
2018-08-11T00:46:13.964Z,2.62
2018-08-11T00:46:26.489Z,2.62
2018-08-11T00:46:39.021Z,2.62
2018-08-11T00:46:51.538Z,2.62
2018-08-11T00:47:04.045Z,2.62
2018-08-11T00:47:16.557Z,2.62
2018-08-11T00:47:29.067Z,2.62
2018-08-11T00:47:41.628Z,2.62
2018-08-11T00:47:54.130Z,2.62
2018-08-11T00:48:06.631Z,2.62
2018-08-11T00:48:19.171Z,1.6
2018-08-11T00:48:31.700Z,1.6
2018-08-11T00:48:44.203Z,1.6
2018-08-11T00:48:56.710Z,1.6
2018-08-11T00:49:09.392Z,1.6
2018-08-11T00:49:22.279Z,1.6
2018-08-11T00:49:36.112Z,1.6
2018-08-11T00:49:48.669Z,1.6
2018-08-11T00:50:01.215Z,1.6
2018-08-11T00:50:13.737Z,1.6
2018-08-11T00:50:26.276Z,1.6
2018-08-11T00:50:38.791Z,1.6
2018-08-11T00:50:51.332Z,1.6
2018-08-11T00:51:03.855Z,1.6
2018-08-11T00:51:16.363Z,1.6
2018-08-11T00:51:28.864Z,1.6
2018-08-11T00:51:41.563Z,1.6
2018-08-11T00:51:54.062Z,1.6
2018-08-11T00:52:06.581Z,1.6
2018-08-11T00:52:19.097Z,1.6
2018-08-11T00:52:31.657Z,1.6
2018-08-11T00:52:44.193Z,1.6
2018-08-11T00:52:56.725Z,1.6
2018-08-11T00:53:09.240Z,1.6
2018-08-11T00:53:21.813Z,1.6
2018-08-11T00:53:34.310Z,1.6
2018-08-11T00:53:46.821Z,1.6
2018-08-11T00:53:59.470Z,1.6
2018-08-11T00:54:11.991Z,1.6
2018-08-11T00:54:24.511Z,1.6
2018-08-11T00:54:37.016Z,1.6
2018-08-11T00:54:49.531Z,1.6
2018-08-11T00:55:02.029Z,1.6
2018-08-11T00:55:14.575Z,1.6
2018-08-11T00:55:27.107Z,1.6
2018-08-11T00:55:39.643Z,1.6
2018-08-11T00:55:52.193Z,1.6
2018-08-11T00:56:04.705Z,1.6
2018-08-11T00:56:17.210Z,1.6
2018-08-11T00:56:29.735Z,1.6
2018-08-11T00:56:42.244Z,1.6
2018-08-11T00:56:54.753Z,1.6
2018-08-11T00:57:07.244Z,1.6
2018-08-11T00:57:20.119Z,1.6
2018-08-11T00:57:32.666Z,1.6
2018-08-11T00:57:45.177Z,1.6
2018-08-11T00:57:57.700Z,1.6
2018-08-11T00:58:10.219Z,4.37
2018-08-11T00:58:22.736Z,4.37
2018-08-11T00:58:35.233Z,4.37
2018-08-11T00:58:47.742Z,4.37
2018-08-11T00:59:00.270Z,4.37
2018-08-11T00:59:12.809Z,4.37
2018-08-11T00:59:25.320Z,4.37
2018-08-11T00:59:37.849Z,4.37
2018-08-11T00:59:50.351Z,4.37
2018-08-11T01:00:02.888Z,4.37
2018-08-11T01:00:15.418Z,4.37
2018-08-11T01:00:27.952Z,4.37
2018-08-11T01:00:40.482Z,4.37
2018-08-11T01:00:53.028Z,4.37
2018-08-11T01:01:05.559Z,4.37
2018-08-11T01:01:18.074Z,4.37
2018-08-11T01:01:30.609Z,4.37
2018-08-11T01:01:43.138Z,4.37
2018-08-11T01:01:55.668Z,4.37
2018-08-11T01:02:08.189Z,4.37
2018-08-11T01:02:21.153Z,4.37
2018-08-11T01:02:34.804Z,4.37
2018-08-11T01:02:47.325Z,4.37
2018-08-11T01:02:59.842Z,4.37
2018-08-11T01:03:12.353Z,4.37
2018-08-11T01:03:24.893Z,4.37
2018-08-11T01:03:37.426Z,4.37
2018-08-11T01:03:49.961Z,4.37
2018-08-11T01:04:02.472Z,4.37
2018-08-11T01:04:15.124Z,4.37
2018-08-11T01:04:27.683Z,4.37
2018-08-11T01:04:40.208Z,4.37
2018-08-11T01:04:52.721Z,4.37
2018-08-11T01:05:05.281Z,4.37
2018-08-11T01:05:17.871Z,4.37
2018-08-11T01:05:30.384Z,4.37
2018-08-11T01:05:42.915Z,4.37
2018-08-11T01:05:55.413Z,4.37
2018-08-11T01:06:07.947Z,4.37
2018-08-11T01:06:20.457Z,4.37
2018-08-11T01:06:32.998Z,4.37
2018-08-11T01:06:45.525Z,4.37
2018-08-11T01:06:58.167Z,4.37
2018-08-11T01:07:10.692Z,4.37
2018-08-11T01:07:23.258Z,4.37
2018-08-11T01:07:35.839Z,4.37
2018-08-11T01:07:48.360Z,4.37
2018-08-11T01:08:00.925Z,4.37
2018-08-11T01:08:13.449Z,1.64
2018-08-11T01:08:25.960Z,1.64
2018-08-11T01:08:38.476Z,1.64
2018-08-11T01:08:51.006Z,1.64
2018-08-11T01:09:03.661Z,1.64
2018-08-11T01:09:16.187Z,1.64
2018-08-11T01:09:28.708Z,1.64
2018-08-11T01:09:41.225Z,1.64
2018-08-11T01:09:53.780Z,1.64
2018-08-11T01:10:06.295Z,1.64
2018-08-11T01:10:18.810Z,1.64
2018-08-11T01:10:31.321Z,1.64
2018-08-11T01:10:43.865Z,1.64
2018-08-11T01:10:57.163Z,1.64
2018-08-11T01:11:10.409Z,1.64
2018-08-11T01:11:23.083Z,1.64
2018-08-11T01:11:35.657Z,1.64
2018-08-11T01:11:48.204Z,1.64
2018-08-11T01:12:00.737Z,1.64
2018-08-11T01:12:13.275Z,1.64
2018-08-11T01:12:25.798Z,1.64
2018-08-11T01:12:38.305Z,1.64
2018-08-11T01:12:50.838Z,1.64
2018-08-11T01:13:03.350Z,1.64
2018-08-11T01:13:15.865Z,1.64
2018-08-11T01:13:28.373Z,1.64
2018-08-11T01:13:40.882Z,1.64
2018-08-11T01:13:53.384Z,1.64
2018-08-11T01:14:05.885Z,1.64
2018-08-11T01:14:18.405Z,1.64
2018-08-11T01:14:30.924Z,1.64
2018-08-11T01:14:43.435Z,1.64
2018-08-11T01:14:55.945Z,1.64
2018-08-11T01:15:08.487Z,1.64
2018-08-11T01:15:21.016Z,1.64
2018-08-11T01:15:33.564Z,1.64
2018-08-11T01:15:46.063Z,1.64
2018-08-11T01:15:58.653Z,1.64
2018-08-11T01:16:11.180Z,1.64
2018-08-11T01:16:23.708Z,1.64
2018-08-11T01:16:36.221Z,1.64
2018-08-11T01:16:48.731Z,1.64
2018-08-11T01:17:01.231Z,1.64
2018-08-11T01:17:13.757Z,1.64
2018-08-11T01:17:26.269Z,1.64
2018-08-11T01:17:38.813Z,1.64
2018-08-11T01:17:51.337Z,1.64
2018-08-11T01:18:03.866Z,1.64
2018-08-11T01:18:16.389Z,2.06
2018-08-11T01:18:28.917Z,2.06
2018-08-11T01:18:41.509Z,2.06
2018-08-11T01:18:54.019Z,2.06
2018-08-11T01:19:06.551Z,2.06
2018-08-11T01:19:19.107Z,2.06
2018-08-11T01:19:31.618Z,2.06
2018-08-11T01:19:44.148Z,2.06
2018-08-11T01:19:56.663Z,2.06
2018-08-11T01:20:09.248Z,2.06
2018-08-11T01:20:21.810Z,2.06
2018-08-11T01:20:34.321Z,2.06
2018-08-11T01:20:46.848Z,2.06
2018-08-11T01:20:59.459Z,2.06
2018-08-11T01:21:12.004Z,2.06
2018-08-11T01:21:24.524Z,2.06
2018-08-11T01:21:37.048Z,2.06
2018-08-11T01:21:49.546Z,2.06
2018-08-11T01:22:02.303Z,2.06
2018-08-11T01:22:14.830Z,2.06
2018-08-11T01:22:27.329Z,2.06
2018-08-11T01:22:39.884Z,2.06
2018-08-11T01:22:52.389Z,2.06
2018-08-11T01:23:04.912Z,2.06
2018-08-11T01:23:17.536Z,2.06
2018-08-11T01:23:30.084Z,2.06
2018-08-11T01:23:42.614Z,2.06
2018-08-11T01:23:55.128Z,2.06
2018-08-11T01:24:07.643Z,2.06
2018-08-11T01:24:20.218Z,2.06
2018-08-11T01:24:32.736Z,2.06
2018-08-11T01:24:45.283Z,2.06
2018-08-11T01:24:57.792Z,2.06
2018-08-11T01:25:10.313Z,2.06
2018-08-11T01:25:22.872Z,2.06
2018-08-11T01:25:35.376Z,2.06
2018-08-11T01:25:47.871Z,2.06
2018-08-11T01:26:00.398Z,2.06
2018-08-11T01:26:12.923Z,2.06
2018-08-11T01:26:25.434Z,2.06
2018-08-11T01:26:38.103Z,2.06
2018-08-11T01:26:50.616Z,2.06
2018-08-11T01:27:03.119Z,2.06
2018-08-11T01:27:15.677Z,2.06
2018-08-11T01:27:28.188Z,2.06
2018-08-11T01:27:40.711Z,2.06
2018-08-11T01:27:53.211Z,2.06
2018-08-11T01:28:05.737Z,2.06
2018-08-11T01:28:18.250Z,2.33
2018-08-11T01:28:30.767Z,2.33
2018-08-11T01:28:43.490Z,2.33
2018-08-11T01:28:56.012Z,2.33
2018-08-11T01:29:08.525Z,2.33
2018-08-11T01:29:21.047Z,2.33
2018-08-11T01:29:33.671Z,2.33
2018-08-11T01:29:46.183Z,2.33
2018-08-11T01:29:58.703Z,2.33
2018-08-11T01:30:11.227Z,2.33
2018-08-11T01:30:23.736Z,2.33
2018-08-11T01:30:36.242Z,2.33
2018-08-11T01:30:48.769Z,2.33
2018-08-11T01:31:01.289Z,2.33
2018-08-11T01:31:13.813Z,2.33
2018-08-11T01:31:26.329Z,2.33
2018-08-11T01:31:38.883Z,2.33
2018-08-11T01:31:51.392Z,2.33
2018-08-11T01:32:03.964Z,2.33
2018-08-11T01:32:16.484Z,2.33
2018-08-11T01:32:29.009Z,2.33
2018-08-11T01:32:41.725Z,2.33
2018-08-11T01:32:54.294Z,2.33
2018-08-11T01:33:06.817Z,2.33
2018-08-11T01:33:19.379Z,2.33
2018-08-11T01:33:31.882Z,2.33
2018-08-11T01:33:44.393Z,2.33
2018-08-11T01:33:56.927Z,2.33
2018-08-11T01:34:09.472Z,2.33
2018-08-11T01:34:22.050Z,2.33
2018-08-11T01:34:34.572Z,2.33
2018-08-11T01:34:47.102Z,2.33
2018-08-11T01:34:59.627Z,2.33
2018-08-11T01:35:12.129Z,2.33
2018-08-11T01:35:24.659Z,2.33
2018-08-11T01:35:37.201Z,2.33
2018-08-11T01:35:49.722Z,2.33
2018-08-11T01:36:02.232Z,2.33
2018-08-11T01:36:14.811Z,2.33
2018-08-11T01:36:27.339Z,2.33
2018-08-11T01:36:39.904Z,2.33
2018-08-11T01:36:52.407Z,2.33
2018-08-11T01:37:04.921Z,2.33
2018-08-11T01:37:17.562Z,2.33
2018-08-11T01:37:30.069Z,2.33
2018-08-11T01:37:42.612Z,2.33
2018-08-11T01:37:55.255Z,2.33
2018-08-11T01:38:07.775Z,2.33
2018-08-11T01:38:20.274Z,2.37
2018-08-11T01:38:32.798Z,2.37
2018-08-11T01:38:45.321Z,2.37
2018-08-11T01:38:57.826Z,2.37
2018-08-11T01:39:10.363Z,2.37
2018-08-11T01:39:23.081Z,2.37
2018-08-11T01:39:35.630Z,2.37
2018-08-11T01:39:48.131Z,2.37
2018-08-11T01:40:00.664Z,2.37
2018-08-11T01:40:13.191Z,2.37
2018-08-11T01:40:25.736Z,2.37
2018-08-11T01:40:38.251Z,2.37
2018-08-11T01:40:50.768Z,2.37
2018-08-11T01:41:03.282Z,2.37
2018-08-11T01:41:15.805Z,2.37
2018-08-11T01:41:28.315Z,2.37
2018-08-11T01:41:40.841Z,2.37
2018-08-11T01:41:53.355Z,2.37
2018-08-11T01:42:05.871Z,2.37
2018-08-11T01:42:18.400Z,2.37
2018-08-11T01:42:30.917Z,2.37
2018-08-11T01:42:43.461Z,2.37
2018-08-11T01:42:55.985Z,2.37
2018-08-11T01:43:08.491Z,2.37
2018-08-11T01:43:21.031Z,2.37
2018-08-11T01:43:33.563Z,2.37
2018-08-11T01:43:46.078Z,2.37
2018-08-11T01:43:58.615Z,2.37
2018-08-11T01:44:11.475Z,2.37
2018-08-11T01:44:25.280Z,2.37
2018-08-11T01:44:37.885Z,2.37
2018-08-11T01:44:50.416Z,2.37
2018-08-11T01:45:02.971Z,2.37
2018-08-11T01:45:15.499Z,2.37
2018-08-11T01:45:28.175Z,2.37
2018-08-11T01:45:40.716Z,2.37
2018-08-11T01:45:53.235Z,2.37
2018-08-11T01:46:05.746Z,2.37
2018-08-11T01:46:18.275Z,2.37
2018-08-11T01:46:30.794Z,2.37
2018-08-11T01:46:43.337Z,2.37
2018-08-11T01:46:55.862Z,2.37
2018-08-11T01:47:08.361Z,2.37
2018-08-11T01:47:20.926Z,2.37
2018-08-11T01:47:33.480Z,2.37
2018-08-11T01:47:46.030Z,2.37
2018-08-11T01:47:58.565Z,2.37
2018-08-11T01:48:11.104Z,2.27
2018-08-11T01:48:23.612Z,2.27
2018-08-11T01:48:36.145Z,2.27
2018-08-11T01:48:48.680Z,2.27
2018-08-11T01:49:01.351Z,2.27
2018-08-11T01:49:13.884Z,2.27
2018-08-11T01:49:26.426Z,2.27
2018-08-11T01:49:38.955Z,2.27
2018-08-11T01:49:51.696Z,2.27
2018-08-11T01:50:04.235Z,2.27
2018-08-11T01:50:16.759Z,2.27
2018-08-11T01:50:29.369Z,2.27
2018-08-11T01:50:41.897Z,2.27
2018-08-11T01:50:54.485Z,2.27
2018-08-11T01:51:07.105Z,2.27
2018-08-11T01:51:19.663Z,2.27
2018-08-11T01:51:32.193Z,2.27
2018-08-11T01:51:44.807Z,2.27
2018-08-11T01:51:57.351Z,2.27
2018-08-11T01:52:09.872Z,2.27
2018-08-11T01:52:22.404Z,2.27
2018-08-11T01:52:34.918Z,2.27
2018-08-11T01:52:47.440Z,2.27
2018-08-11T01:52:59.934Z,2.27
2018-08-11T01:53:12.452Z,2.27
2018-08-11T01:53:24.974Z,2.27
2018-08-11T01:53:37.489Z,2.27
2018-08-11T01:53:49.997Z,2.27
2018-08-11T01:54:02.504Z,2.27
2018-08-11T01:54:15.008Z,2.27
2018-08-11T01:54:27.535Z,2.27
2018-08-11T01:54:40.042Z,2.27
2018-08-11T01:54:52.540Z,2.27
2018-08-11T01:55:05.068Z,2.27
2018-08-11T01:55:17.640Z,2.27
2018-08-11T01:55:30.130Z,2.27
2018-08-11T01:55:42.649Z,2.27
2018-08-11T01:55:55.216Z,2.27
2018-08-11T01:56:07.756Z,2.27
2018-08-11T01:56:20.266Z,2.27
2018-08-11T01:56:32.771Z,2.27
2018-08-11T01:56:45.313Z,2.27
2018-08-11T01:56:57.831Z,2.27
2018-08-11T01:57:10.338Z,2.27
2018-08-11T01:57:22.937Z,2.27
2018-08-11T01:57:35.443Z,2.27
2018-08-11T01:57:48.022Z,2.27
2018-08-11T01:58:00.565Z,2.27
2018-08-11T01:58:13.074Z,3.9
2018-08-11T01:58:25.593Z,3.9
2018-08-11T01:58:38.116Z,3.9
2018-08-11T01:58:50.612Z,3.9
2018-08-11T01:59:03.152Z,3.9
2018-08-11T01:59:15.665Z,3.9
2018-08-11T01:59:28.191Z,3.9
2018-08-11T01:59:40.713Z,3.9
2018-08-11T01:59:53.251Z,3.9
2018-08-11T02:00:05.799Z,3.9
2018-08-11T02:00:18.331Z,3.9
2018-08-11T02:00:30.870Z,3.9
2018-08-11T02:00:43.428Z,3.9
2018-08-11T02:00:55.996Z,3.9
2018-08-11T02:01:08.526Z,3.9
2018-08-11T02:01:21.098Z,3.9
2018-08-11T02:01:33.642Z,3.9
2018-08-11T02:01:46.173Z,3.9
2018-08-11T02:01:58.710Z,3.9
2018-08-11T02:02:11.289Z,3.9
2018-08-11T02:02:23.814Z,3.9
2018-08-11T02:02:36.597Z,3.9
2018-08-11T02:02:49.126Z,3.9
2018-08-11T02:03:01.629Z,3.9
2018-08-11T02:03:14.151Z,3.9
2018-08-11T02:03:26.688Z,3.9
2018-08-11T02:03:39.229Z,3.9
2018-08-11T02:03:51.920Z,3.9
2018-08-11T02:04:04.465Z,3.9
2018-08-11T02:04:17.174Z,3.9
2018-08-11T02:04:29.744Z,3.9
2018-08-11T02:04:42.280Z,3.9
2018-08-11T02:04:54.781Z,3.9
2018-08-11T02:05:07.286Z,3.9
2018-08-11T02:05:19.813Z,3.9
2018-08-11T02:05:32.377Z,3.9
2018-08-11T02:05:44.900Z,3.9
2018-08-11T02:05:57.415Z,3.9
2018-08-11T02:06:09.951Z,3.9
2018-08-11T02:06:22.500Z,3.9
2018-08-11T02:06:35.013Z,3.9
2018-08-11T02:06:47.544Z,3.9
2018-08-11T02:07:00.131Z,3.9
2018-08-11T02:07:12.644Z,3.9
2018-08-11T02:07:25.154Z,3.9
2018-08-11T02:07:37.688Z,3.9
2018-08-11T02:07:50.243Z,3.9
2018-08-11T02:08:02.766Z,3.9
2018-08-11T02:08:15.294Z,2.56
2018-08-11T02:08:27.818Z,2.56
2018-08-11T02:08:40.337Z,2.56
2018-08-11T02:08:52.846Z,2.56
2018-08-11T02:09:05.514Z,2.56
2018-08-11T02:09:18.033Z,2.56
2018-08-11T02:09:30.572Z,2.56
2018-08-11T02:09:43.149Z,2.56
2018-08-11T02:09:55.669Z,2.56
2018-08-11T02:10:08.195Z,2.56
2018-08-11T02:10:20.734Z,2.56
2018-08-11T02:10:33.255Z,2.56
2018-08-11T02:10:45.759Z,2.56
2018-08-11T02:10:58.323Z,2.56
2018-08-11T02:11:11.015Z,2.56
2018-08-11T02:11:24.679Z,2.56
2018-08-11T02:11:37.200Z,2.56
2018-08-11T02:11:49.721Z,2.56
2018-08-11T02:12:02.238Z,2.56
2018-08-11T02:12:14.760Z,2.56
2018-08-11T02:12:27.294Z,2.56
2018-08-11T02:12:39.814Z,2.56
2018-08-11T02:12:52.370Z,2.56
2018-08-11T02:13:04.892Z,2.56
2018-08-11T02:13:17.423Z,2.56
2018-08-11T02:13:29.912Z,2.56
2018-08-11T02:13:42.463Z,2.56
2018-08-11T02:13:54.979Z,2.56
2018-08-11T02:14:07.512Z,2.56
2018-08-11T02:14:20.037Z,2.56
2018-08-11T02:14:32.564Z,2.56
2018-08-11T02:14:45.072Z,2.56
2018-08-11T02:14:57.615Z,2.56
2018-08-11T02:15:10.162Z,2.56
2018-08-11T02:15:22.685Z,2.56
2018-08-11T02:15:35.212Z,2.56
2018-08-11T02:15:47.734Z,2.56
2018-08-11T02:16:00.253Z,2.56
2018-08-11T02:16:12.785Z,2.56
2018-08-11T02:16:25.295Z,2.56
2018-08-11T02:16:37.837Z,2.56
2018-08-11T02:16:50.365Z,2.56
2018-08-11T02:17:02.877Z,2.56
2018-08-11T02:17:15.481Z,2.56
2018-08-11T02:17:27.997Z,2.56
2018-08-11T02:17:40.512Z,2.56
2018-08-11T02:17:53.055Z,2.56
2018-08-11T02:18:05.587Z,2.56
2018-08-11T02:18:18.116Z,3.12
2018-08-11T02:18:30.657Z,3.12
2018-08-11T02:18:43.191Z,3.12
2018-08-11T02:18:55.702Z,3.12
2018-08-11T02:19:08.242Z,3.12
2018-08-11T02:19:20.752Z,3.12
2018-08-11T02:19:33.276Z,3.12
2018-08-11T02:19:45.793Z,3.12
2018-08-11T02:19:58.292Z,3.12
2018-08-11T02:20:10.811Z,3.12
2018-08-11T02:20:23.342Z,3.12
2018-08-11T02:20:35.868Z,3.12
2018-08-11T02:20:48.406Z,3.12
2018-08-11T02:21:00.931Z,3.12
2018-08-11T02:21:13.452Z,3.12
2018-08-11T02:21:25.957Z,3.12
2018-08-11T02:21:38.513Z,3.12
2018-08-11T02:21:51.026Z,3.12
2018-08-11T02:22:03.698Z,3.12
2018-08-11T02:22:16.199Z,3.12
2018-08-11T02:22:28.744Z,3.12
2018-08-11T02:22:41.263Z,3.12
2018-08-11T02:22:53.795Z,3.12
2018-08-11T02:23:06.321Z,3.12
2018-08-11T02:23:18.830Z,3.12
2018-08-11T02:23:31.359Z,3.12
2018-08-11T02:23:43.871Z,3.12
2018-08-11T02:23:56.434Z,3.12
2018-08-11T02:24:08.949Z,3.12
2018-08-11T02:24:21.480Z,3.12
2018-08-11T02:24:34.019Z,3.12
2018-08-11T02:24:47.126Z,3.12
2018-08-11T02:25:00.615Z,3.12
2018-08-11T02:25:13.151Z,3.12
2018-08-11T02:25:25.679Z,3.12
2018-08-11T02:25:38.185Z,3.12
2018-08-11T02:25:50.734Z,3.12
2018-08-11T02:26:03.267Z,3.12
2018-08-11T02:26:15.792Z,3.12
2018-08-11T02:26:28.315Z,3.12
2018-08-11T02:26:40.832Z,3.12
2018-08-11T02:26:53.349Z,3.12
2018-08-11T02:27:06.287Z,3.12
2018-08-11T02:27:18.846Z,3.12
2018-08-11T02:27:31.370Z,3.12
2018-08-11T02:27:43.934Z,3.12
2018-08-11T02:27:56.461Z,3.12
2018-08-11T02:28:08.980Z,3.12
2018-08-11T02:28:21.493Z,2.13
2018-08-11T02:28:34.046Z,2.13
2018-08-11T02:28:46.644Z,2.13
2018-08-11T02:28:59.167Z,2.13
2018-08-11T02:29:11.884Z,2.13
2018-08-11T02:29:24.576Z,2.13
2018-08-11T02:29:37.093Z,2.13
2018-08-11T02:29:49.618Z,2.13
2018-08-11T02:30:02.203Z,2.13
2018-08-11T02:30:14.775Z,2.13
2018-08-11T02:30:27.352Z,2.13
2018-08-11T02:30:39.918Z,2.13
2018-08-11T02:30:52.466Z,2.13
2018-08-11T02:31:05.042Z,2.13
2018-08-11T02:31:17.581Z,2.13
2018-08-11T02:31:30.114Z,2.13
2018-08-11T02:31:42.652Z,2.13
2018-08-11T02:31:55.199Z,2.13
2018-08-11T02:32:07.744Z,2.13
2018-08-11T02:32:20.292Z,2.13
2018-08-11T02:32:32.894Z,2.13
2018-08-11T02:32:45.462Z,2.13
2018-08-11T02:32:57.994Z,2.13
2018-08-11T02:33:10.533Z,2.13
2018-08-11T02:33:23.107Z,2.13
2018-08-11T02:33:35.706Z,2.13
2018-08-11T02:33:48.586Z,2.13
2018-08-11T02:34:01.142Z,2.13
2018-08-11T02:34:13.972Z,2.13
2018-08-11T02:34:27.610Z,2.13
2018-08-11T02:34:40.533Z,2.13
2018-08-11T02:34:53.123Z,2.13
2018-08-11T02:35:05.676Z,2.13
2018-08-11T02:35:18.233Z,2.13
2018-08-11T02:35:30.775Z,2.13
2018-08-11T02:35:43.316Z,2.13
2018-08-11T02:35:55.840Z,2.13
2018-08-11T02:36:08.391Z,2.13
2018-08-11T02:36:20.937Z,2.13
2018-08-11T02:36:33.518Z,2.13
2018-08-11T02:36:46.031Z,2.13
2018-08-11T02:36:58.548Z,2.13
2018-08-11T02:37:11.089Z,2.13
2018-08-11T02:37:23.694Z,2.13
2018-08-11T02:37:36.235Z,2.13
2018-08-11T02:37:48.810Z,2.13
2018-08-11T02:38:01.360Z,2.13
2018-08-11T02:38:13.900Z,2.13
2018-08-11T02:38:26.463Z,1.95
2018-08-11T02:38:39.006Z,1.95
2018-08-11T02:38:51.556Z,1.95
2018-08-11T02:39:04.125Z,1.95
2018-08-11T02:39:16.670Z,1.95
2018-08-11T02:39:29.287Z,1.95
2018-08-11T02:39:41.849Z,1.95
2018-08-11T02:39:54.400Z,1.95
2018-08-11T02:40:06.987Z,1.95
2018-08-11T02:40:19.598Z,1.95
2018-08-11T02:40:32.138Z,1.95
2018-08-11T02:40:44.873Z,1.95
2018-08-11T02:40:57.407Z,1.95
2018-08-11T02:41:09.952Z,1.95
2018-08-11T02:41:22.490Z,1.95
2018-08-11T02:41:35.020Z,1.95
2018-08-11T02:41:47.572Z,1.95
2018-08-11T02:42:00.097Z,1.95
2018-08-11T02:42:12.694Z,1.95
2018-08-11T02:42:25.226Z,1.95
2018-08-11T02:42:37.760Z,1.95
2018-08-11T02:42:50.406Z,1.95
2018-08-11T02:43:02.946Z,1.95
2018-08-11T02:43:15.479Z,1.95
2018-08-11T02:43:28.029Z,1.95
2018-08-11T02:43:40.572Z,1.95
2018-08-11T02:43:53.113Z,1.95
2018-08-11T02:44:05.646Z,1.95
2018-08-11T02:44:18.215Z,1.95
2018-08-11T02:44:30.753Z,1.95
2018-08-11T02:44:43.283Z,1.95
2018-08-11T02:44:55.832Z,1.95
2018-08-11T02:45:08.479Z,1.95
2018-08-11T02:45:21.087Z,1.95
2018-08-11T02:45:33.628Z,1.95
2018-08-11T02:45:46.210Z,1.95
2018-08-11T02:45:58.772Z,1.95
2018-08-11T02:46:11.301Z,1.95
2018-08-11T02:46:23.853Z,1.95
2018-08-11T02:46:36.383Z,1.95
2018-08-11T02:46:48.929Z,1.95
2018-08-11T02:47:01.464Z,1.95
2018-08-11T02:47:14.008Z,1.95
2018-08-11T02:47:26.536Z,1.95
2018-08-11T02:47:39.127Z,1.95